Cedar Valley, UT (84013)

10:53 PM MDT on August 29, 2014 (GMT -0600)
West Desert Airpark | Change Station
CLOSE
Current Station
Personal Weather Station
Location: Fairfield, UT
Elevation: 4888 ft
Nearby Weather Stations

Elev 4888 ft 40.24 °N, 112.09 °W | Updated 1 second ago

Partly Cloudy
Partly Cloudy
64.0 °F
Feels Like 64.0 °F
N
0.0
Wind Variable Wind from NW
Gusts 0.0 mph

Today
High -- | Low -- °F
--% Chance of Precip.
Yesterday
High -- | Low -- °F
Precip. -- in
6:52 AM 8:04 PM
Waxing Crescent, 19% visible
Pressure 30.01 in
Visibility 10.0 miles
Clouds Clear
Dew Point 49 °F
Humidity 57%
Rainfall 0.00 in
Snow Depth Not available.
UV 1.3 out of 12
Pollen 8.10 out of 12
Air Quality Not available.
Flu Activity Not available.
METAR KPVU 300435Z 00000KT 10SM CLR 19/11 A3001 RMK AO1

More Conditions Fewer Conditions

Pressure 30.01 in
Visibility 10.0 miles
Clouds Clear
Dew Point 49 °F
Humidity 57%
Rainfall 0.00 in
Snow Depth Not available.
UV 1.3 out of 12
Pollen 8.10 out of 12
Air Quality Not available.
Flu Activity Not available.
METAR KPVU 300435Z 00000KT 10SM CLR 19/11 A3001 RMK AO1

More Conditions Fewer Conditions

10-Day Weather Forecast

Almanac

Astronomy

Aug. 29, 2014 Rise Set
Actual Time 6:52 AM MDT 8:04 PM MDT
Civil Twilight 6:24 AM MDT 8:32 PM MDT
Nautical Twilight 5:51 AM MDT 9:06 PM MDT
Astronomical Twilight 5:16 AM MDT 9:41 PM MDT
Moon 10:46 AM MDT (8/29) 10:03 PM MDT (8/29)
Length of Visible Light 14h 07m
Length of Day
13h 11m
Tomorrow will be 2m 31s shorter.
Waxing Crescent, 19% of the Moon is Illuminated
Aug 30
Waxing Crescent
Sep 2
First Quarter
Sep 8
Full
Sep 15
Last Quarter
Sep 24
New

Yesterday's Extremes

State Highs State Lows

Community

WunderPhotos

Upload Photos

1,748,454 photos uploaded!

Nearby

Snow Depth

Station Depth Elevation
Dry Fork 0 in 7160 ft
Cascade Mountain 0 in 7768 ft
Daniels-Strawberry 0 in 8000 ft
Louis Meadow 0 in 6700 ft
Hardscrabble 0 in 7250 ft

Earthquake Activity

City Distance Mag. Time & Date
No recent earthquake activity has been reported nearby.
Minimum magnitude displayed is 2.5.

Coastal Water Temperatures

Place Temperature
No Stations Reporting

Nearby Weather Stations